sensor_id;sensor_type;location;lat;lon;timestamp;pressure;altitude;pressure_sealevel;temperature;humidity
18918;BME280;9591;52.742;13.650;2023-04-19T00:01:11;102314.50;;;8.42;70.29
18918;BME280;9591;52.742;13.650;2023-04-19T00:04:01;102327.69;;;8.44;71.38
18918;BME280;9591;52.742;13.650;2023-04-19T00:06:49;102332.91;;;8.27;71.13
18918;BME280;9591;52.742;13.650;2023-04-19T00:09:37;102324.97;;;8.22;71.39
18918;BME280;9591;52.742;13.650;2023-04-19T00:12:23;102233.38;;;7.77;70.45
18918;BME280;9591;52.742;13.650;2023-04-19T00:15:10;102316.25;;;8.46;71.59
18918;BME280;9591;52.742;13.650;2023-04-19T00:17:57;102316.16;;;8.16;70.39
18918;BME280;9591;52.742;13.650;2023-04-19T00:20:45;102314.47;;;8.39;71.28
18918;BME280;9591;52.742;13.650;2023-04-19T00:23:33;102313.53;;;8.25;72.12
18918;BME280;9591;52.742;13.650;2023-04-19T00:26:19;102305.63;;;8.27;72.04
18918;BME280;9591;52.742;13.650;2023-04-19T00:29:09;102309.09;;;8.04;72.46
18918;BME280;9591;52.742;13.650;2023-04-19T00:31:56;102304.69;;;8.08;74.00
18918;BME280;9591;52.742;13.650;2023-04-19T00:34:43;102306.44;;;8.01;73.68
18918;BME280;9591;52.742;13.650;2023-04-19T00:37:31;102303.75;;;7.89;73.17
18918;BME280;9591;52.742;13.650;2023-04-19T00:40:18;102302.94;;;8.05;72.79
18918;BME280;9591;52.742;13.650;2023-04-19T00:43:05;102309.03;;;7.80;73.90
18918;BME280;9591;52.742;13.650;2023-04-19T00:45:52;102311.53;;;7.52;74.10
18918;BME280;9591;52.742;13.650;2023-04-19T00:48:39;102306.28;;;7.62;75.54
18918;BME280;9591;52.742;13.650;2023-04-19T00:51:25;102312.53;;;7.77;74.03
18918;BME280;9591;52.742;13.650;2023-04-19T00:54:14;102310.72;;;7.67;75.68
18918;BME280;9591;52.742;13.650;2023-04-19T00:57:01;102293.09;;;7.62;74.63
18918;BME280;9591;52.742;13.650;2023-04-19T00:59:48;102301.03;;;7.63;75.77
18918;BME280;9591;52.742;13.650;2023-04-19T01:02:35;102305.38;;;7.56;75.67
18918;BME280;9591;52.742;13.650;2023-04-19T01:05:22;102299.22;;;7.53;76.98
18918;BME280;9591;52.742;13.650;2023-04-19T01:08:09;102300.09;;;7.52;76.24
18918;BME280;9591;52.742;13.650;2023-04-19T01:10:57;102295.69;;;7.48;76.58
18918;BME280;9591;52.742;13.650;2023-04-19T01:13:44;102293.78;;;7.26;76.19
18918;BME280;9591;52.742;13.650;2023-04-19T01:16:31;102288.59;;;7.41;76.68
18918;BME280;9591;52.742;13.650;2023-04-19T01:19:18;102291.19;;;7.33;76.71
18918;BME280;9591;52.742;13.650;2023-04-19T01:22:05;102300.00;;;7.38;77.48
18918;BME280;9591;52.742;13.650;2023-04-19T01:24:55;102298.16;;;7.20;78.43
18918;BME280;9591;52.742;13.650;2023-04-19T01:27:41;102291.13;;;7.21;78.61
18918;BME280;9591;52.742;13.650;2023-04-19T01:30:28;102286.63;;;7.08;77.11
18918;BME280;9591;52.742;13.650;2023-04-19T01:33:15;102291.13;;;7.22;77.66
18918;BME280;9591;52.742;13.650;2023-04-19T01:36:02;102280.53;;;7.15;76.98
18918;BME280;9591;52.742;13.650;2023-04-19T01:38:49;102277.00;;;7.11;79.09
18918;BME280;9591;52.742;13.650;2023-04-19T01:41:37;102277.84;;;7.04;79.34
18918;BME280;9591;52.742;13.650;2023-04-19T01:44:24;102277.78;;;6.92;79.45
18918;BME280;9591;52.742;13.650;2023-04-19T01:47:11;102276.91;;;6.93;79.59
18918;BME280;9591;52.742;13.650;2023-04-19T01:49:58;102267.19;;;6.84;80.00
18918;BME280;9591;52.742;13.650;2023-04-19T01:52:44;102266.31;;;6.87;79.46
18918;BME280;9591;52.742;13.650;2023-04-19T01:55:31;102260.19;;;6.89;79.17
18918;BME280;9591;52.742;13.650;2023-04-19T01:58:20;102271.50;;;6.75;81.39
18918;BME280;9591;52.742;13.650;2023-04-19T02:01:06;102254.88;;;6.80;80.40
18918;BME280;9591;52.742;13.650;2023-04-19T02:03:56;102241.75;;;6.88;79.72
18918;BME280;9591;52.742;13.650;2023-04-19T02:06:43;102246.97;;;6.80;79.52
18918;BME280;9591;52.742;13.650;2023-04-19T02:09:30;102250.53;;;6.90;79.03
18918;BME280;9591;52.742;13.650;2023-04-19T02:12:20;102246.97;;;6.82;79.95
18918;BME280;9591;52.742;13.650;2023-04-19T02:15:09;102244.38;;;6.86;80.83
18918;BME280;9591;52.742;13.650;2023-04-19T02:17:56;102241.69;;;6.79;80.61
18918;BME280;9591;52.742;13.650;2023-04-19T02:20:44;102234.69;;;6.84;81.40
18918;BME280;9591;52.742;13.650;2023-04-19T02:23:31;102231.22;;;6.91;81.88
18918;BME280;9591;52.742;13.650;2023-04-19T02:26:18;102235.59;;;6.84;82.08
18918;BME280;9591;52.742;13.650;2023-04-19T02:29:05;102234.72;;;6.87;81.81
18918;BME280;9591;52.742;13.650;2023-04-19T02:31:53;102230.25;;;6.75;82.88
18918;BME280;9591;52.742;13.650;2023-04-19T02:34:40;102230.16;;;6.65;84.16
18918;BME280;9591;52.742;13.650;2023-04-19T02:37:27;102216.88;;;6.51;84.65
18918;BME280;9591;52.742;13.650;2023-04-19T02:40:14;102216.84;;;6.46;85.20
18918;BME280;9591;52.742;13.650;2023-04-19T02:43:02;102219.59;;;6.62;84.25
18918;BME280;9591;52.742;13.650;2023-04-19T02:45:49;102212.63;;;6.65;83.09
18918;BME280;9591;52.742;13.650;2023-04-19T02:48:39;102209.88;;;6.53;83.71
18918;BME280;9591;52.742;13.650;2023-04-19T02:51:26;102215.22;;;6.61;83.88
18918;BME280;9591;52.742;13.650;2023-04-19T02:54:14;102213.31;;;6.43;86.06
18918;BME280;9591;52.742;13.650;2023-04-19T02:57:02;102208.06;;;6.44;86.17
18918;BME280;9591;52.742;13.650;2023-04-19T02:59:49;102196.53;;;6.29;88.04
18918;BME280;9591;52.742;13.650;2023-04-19T03:02:36;102201.69;;;6.19;87.87
18918;BME280;9591;52.742;13.650;2023-04-19T03:05:26;102204.28;;;6.15;88.01
18918;BME280;9591;52.742;13.650;2023-04-19T03:08:12;102191.09;;;6.10;88.96
18918;BME280;9591;52.742;13.650;2023-04-19T03:11:01;102192.00;;;6.14;88.67
18918;BME280;9591;52.742;13.650;2023-04-19T03:13:48;102188.53;;;6.19;88.48
18918;BME280;9591;52.742;13.650;2023-04-19T03:16:35;102184.97;;;6.13;91.03
18918;BME280;9591;52.742;13.650;2023-04-19T03:19:22;102178.78;;;6.08;92.28
18918;BME280;9591;52.742;13.650;2023-04-19T03:22:11;102172.63;;;6.01;91.91
18918;BME280;9591;52.742;13.650;2023-04-19T03:24:57;102174.38;;;6.01;92.80
18918;BME280;9591;52.742;13.650;2023-04-19T03:27:44;102176.28;;;6.20;90.81
18918;BME280;9591;52.742;13.650;2023-04-19T03:30:35;102171.81;;;6.11;91.23
18918;BME280;9591;52.742;13.650;2023-04-19T03:33:22;102169.25;;;6.19;91.40
18918;BME280;9591;52.742;13.650;2023-04-19T03:36:09;102174.41;;;6.07;91.73
18918;BME280;9591;52.742;13.650;2023-04-19T03:39:01;102156.88;;;6.06;92.39
18918;BME280;9591;52.742;13.650;2023-04-19T03:41:48;102173.31;;;5.86;94.45
18918;BME280;9591;52.742;13.650;2023-04-19T03:44:54;102155.75;;;5.81;95.58
18918;BME280;9591;52.742;13.650;2023-04-19T03:47:41;102161.28;;;6.05;93.51
18918;BME280;9591;52.742;13.650;2023-04-19T03:50:28;102158.59;;;6.02;94.41
18918;BME280;9591;52.742;13.650;2023-04-19T03:53:15;102162.09;;;6.00;95.20
18918;BME280;9591;52.742;13.650;2023-04-19T03:56:04;102156.84;;;6.01;95.87
18918;BME280;9591;52.742;13.650;2023-04-19T03:58:51;102158.69;;;6.14;94.81
18918;BME280;9591;52.742;13.650;2023-04-19T04:01:38;102149.00;;;6.10;95.83
18918;BME280;9591;52.742;13.650;2023-04-19T04:04:27;102144.56;;;6.02;97.26
18918;BME280;9591;52.742;13.650;2023-04-19T04:07:14;102137.53;;;5.98;98.32
18918;BME280;9591;52.742;13.650;2023-04-19T04:10:01;102134.84;;;5.93;98.90
18918;BME280;9591;52.742;13.650;2023-04-19T04:12:53;102140.16;;;5.99;100.00
18918;BME280;9591;52.742;13.650;2023-04-19T04:15:53;102132.31;;;6.04;99.39
18918;BME280;9591;52.742;13.650;2023-04-19T04:18:40;102138.47;;;6.06;98.96
18918;BME280;9591;52.742;13.650;2023-04-19T04:21:31;102139.34;;;6.08;99.42
18918;BME280;9591;52.742;13.650;2023-04-19T04:24:23;102139.41;;;6.17;99.80
18918;BME280;9591;52.742;13.650;2023-04-19T04:27:23;102137.72;;;6.25;100.00
18918;BME280;9591;52.742;13.650;2023-04-19T04:30:14;102134.28;;;6.32;100.00
18918;BME280;9591;52.742;13.650;2023-04-19T04:33:01;102131.75;;;6.46;99.61
18918;BME280;9591;52.742;13.650;2023-04-19T04:35:49;102122.38;;;7.04;99.21
18918;BME280;9591;52.742;13.650;2023-04-19T04:38:43;102128.72;;;7.52;96.13
18918;BME280;9591;52.742;13.650;2023-04-19T04:41:30;102125.25;;;8.23;90.93
18918;BME280;9591;52.742;13.650;2023-04-19T04:44:17;102120.84;;;8.62;86.14
18918;BME280;9591;52.742;13.650;2023-04-19T04:47:06;102108.41;;;8.88;84.54
18918;BME280;9591;52.742;13.650;2023-04-19T04:50:00;102124.34;;;7.89;87.34
18918;BME280;9591;52.742;13.650;2023-04-19T04:52:51;102112.94;;;8.02;88.33
18918;BME280;9591;52.742;13.650;2023-04-19T04:55:46;102123.50;;;8.42;85.94
18918;BME280;9591;52.742;13.650;2023-04-19T04:58:33;102118.13;;;8.68;84.69
18918;BME280;9591;52.742;13.650;2023-04-19T05:01:23;102113.66;;;8.96;81.24
18918;BME280;9591;52.742;13.650;2023-04-19T05:04:12;102111.94;;;8.81;84.54
18918;BME280;9591;52.742;13.650;2023-04-19T05:07:01;102115.19;;;9.44;83.83
18918;BME280;9591;52.742;13.650;2023-04-19T05:09:49;102115.47;;;10.27;75.97
18918;BME280;9591;52.742;13.650;2023-04-19T05:12:41;102104.66;;;11.86;70.29
18918;BME280;9591;52.742;13.650;2023-04-19T05:15:30;102095.44;;;12.56;65.74
18918;BME280;9591;52.742;13.650;2023-04-19T05:18:18;102094.84;;;13.28;61.25
18918;BME280;9591;52.742;13.650;2023-04-19T05:21:09;102099.66;;;14.24;58.14
18918;BME280;9591;52.742;13.650;2023-04-19T05:23:58;102093.31;;;13.94;57.12
18918;BME280;9591;52.742;13.650;2023-04-19T05:26:45;102091.13;;;14.45;55.62
18918;BME280;9591;52.742;13.650;2023-04-19T05:29:32;102092.91;;;14.45;55.24
18918;BME280;9591;52.742;13.650;2023-04-19T05:32:19;102088.66;;;14.02;55.24
18918;BME280;9591;52.742;13.650;2023-04-19T05:35:11;102079.97;;;13.58;57.28
18918;BME280;9591;52.742;13.650;2023-04-19T05:37:59;102072.63;;;13.31;58.78
18918;BME280;9591;52.742;13.650;2023-04-19T05:40:46;102071.75;;;11.36;65.32
18918;BME280;9591;52.742;13.650;2023-04-19T05:43:33;102066.84;;;11.10;67.01
18918;BME280;9591;52.742;13.650;2023-04-19T05:46:20;102065.84;;;11.19;69.43
18918;BME280;9591;52.742;13.650;2023-04-19T05:49:07;102076.47;;;10.42;71.82
18918;BME280;9591;52.742;13.650;2023-04-19T05:52:12;102075.06;;;10.03;74.31
18918;BME280;9591;52.742;13.650;2023-04-19T05:55:08;102076.84;;;10.01;75.32
18918;BME280;9591;52.742;13.650;2023-04-19T05:58:00;102079.00;;;9.52;78.04
18918;BME280;9591;52.742;13.650;2023-04-19T06:00:48;102075.50;;;9.51;79.98
18918;BME280;9591;52.742;13.650;2023-04-19T06:03:38;102070.22;;;9.48;79.53
18918;BME280;9591;52.742;13.650;2023-04-19T06:06:26;102058.84;;;9.33;79.64
18918;BME280;9591;52.742;13.650;2023-04-19T06:09:12;102072.03;;;9.42;78.25
18918;BME280;9591;52.742;13.650;2023-04-19T06:12:01;102063.09;;;9.55;78.58
18918;BME280;9591;52.742;13.650;2023-04-19T06:14:47;102060.41;;;9.60;77.35
18918;BME280;9591;52.742;13.650;2023-04-19T06:17:34;102067.25;;;9.86;77.02
18918;BME280;9591;52.742;13.650;2023-04-19T06:20:21;102060.31;;;10.67;74.87
18918;BME280;9591;52.742;13.650;2023-04-19T06:23:08;102062.22;;;11.25;68.67
18918;BME280;9591;52.742;13.650;2023-04-19T06:25:56;102063.75;;;11.38;68.05
18918;BME280;9591;52.742;13.650;2023-04-19T06:28:45;102059.66;;;11.17;68.47
18918;BME280;9591;52.742;13.650;2023-04-19T06:31:32;102057.50;;;10.79;70.30
18918;BME280;9591;52.742;13.650;2023-04-19T06:34:18;102052.38;;;10.64;69.79
18918;BME280;9591;52.742;13.650;2023-04-19T06:37:05;102047.03;;;11.33;70.66
18918;BME280;9591;52.742;13.650;2023-04-19T06:39:52;102049.06;;;11.17;66.38
18918;BME280;9591;52.742;13.650;2023-04-19T06:42:39;102053.03;;;11.47;67.01
18918;BME280;9591;52.742;13.650;2023-04-19T06:45:27;102050.63;;;11.29;67.95
18918;BME280;9591;52.742;13.650;2023-04-19T06:48:14;102041.25;;;11.06;65.39
18918;BME280;9591;52.742;13.650;2023-04-19T06:51:00;102043.47;;;10.71;64.56
18918;BME280;9591;52.742;13.650;2023-04-19T06:53:48;102018.16;;;11.14;66.80
18918;BME280;9591;52.742;13.650;2023-04-19T06:56:39;102027.78;;;11.22;65.58
18918;BME280;9591;52.742;13.650;2023-04-19T06:59:26;102034.56;;;11.39;65.79
18918;BME280;9591;52.742;13.650;2023-04-19T07:02:17;102028.91;;;11.62;65.40
18918;BME280;9591;52.742;13.650;2023-04-19T07:05:04;102024.06;;;11.32;62.83
18918;BME280;9591;52.742;13.650;2023-04-19T07:07:52;102014.50;;;11.23;62.99
18918;BME280;9591;52.742;13.650;2023-04-19T07:10:38;102010.59;;;11.45;63.26
18918;BME280;9591;52.742;13.650;2023-04-19T07:13:27;102002.59;;;11.47;62.59
18918;BME280;9591;52.742;13.650;2023-04-19T07:16:14;101994.56;;;10.95;61.41
18918;BME280;9591;52.742;13.650;2023-04-19T07:19:02;101990.28;;;11.44;63.81
18918;BME280;9591;52.742;13.650;2023-04-19T07:21:50;102004.00;;;11.71;62.12
18918;BME280;9591;52.742;13.650;2023-04-19T07:24:37;101998.41;;;11.34;59.95
18918;BME280;9591;52.742;13.650;2023-04-19T07:27:26;101986.63;;;11.52;62.56
18918;BME280;9591;52.742;13.650;2023-04-19T07:30:13;102000.53;;;11.66;59.43
18918;BME280;9591;52.742;13.650;2023-04-19T07:32:59;102002.16;;;11.77;58.73
18918;BME280;9591;52.742;13.650;2023-04-19T07:35:50;101995.75;;;11.89;58.93
18918;BME280;9591;52.742;13.650;2023-04-19T07:38:36;101989.75;;;11.78;59.88
18918;BME280;9591;52.742;13.650;2023-04-19T07:41:23;101980.72;;;11.88;57.79
18918;BME280;9591;52.742;13.650;2023-04-19T07:44:10;101994.72;;;11.42;58.89
18918;BME280;9591;52.742;13.650;2023-04-19T07:46:58;101976.84;;;11.55;58.34
18918;BME280;9591;52.742;13.650;2023-04-19T07:49:45;101969.66;;;12.12;59.44
18918;BME280;9591;52.742;13.650;2023-04-19T07:52:33;101967.56;;;12.27;57.37
18918;BME280;9591;52.742;13.650;2023-04-19T07:55:19;101970.75;;;12.45;57.42
18918;BME280;9591;52.742;13.650;2023-04-19T07:58:06;101965.81;;;12.69;58.65
18918;BME280;9591;52.742;13.650;2023-04-19T08:00:53;101968.59;;;12.64;56.04
18918;BME280;9591;52.742;13.650;2023-04-19T08:03:40;101972.94;;;12.68;55.09
18918;BME280;9591;52.742;13.650;2023-04-19T08:06:27;101958.03;;;12.60;52.99
18918;BME280;9591;52.742;13.650;2023-04-19T08:09:16;101975.78;;;12.99;53.87
18918;BME280;9591;52.742;13.650;2023-04-19T08:12:03;101971.66;;;12.44;52.92
18918;BME280;9591;52.742;13.650;2023-04-19T08:14:49;101970.97;;;12.76;54.00
18918;BME280;9591;52.742;13.650;2023-04-19T08:17:51;101963.59;;;13.28;54.09
18918;BME280;9591;52.742;13.650;2023-04-19T08:20:38;101974.72;;;13.45;54.04
18918;BME280;9591;52.742;13.650;2023-04-19T08:23:27;101965.78;;;13.09;53.22
18918;BME280;9591;52.742;13.650;2023-04-19T08:26:30;101963.22;;;13.78;51.96
18918;BME280;9591;52.742;13.650;2023-04-19T08:29:17;101966.59;;;13.51;52.58
18918;BME280;9591;52.742;13.650;2023-04-19T08:32:04;101967.03;;;12.94;52.26
18918;BME280;9591;52.742;13.650;2023-04-19T08:34:51;101960.69;;;13.38;53.72
18918;BME280;9591;52.742;13.650;2023-04-19T08:37:38;101938.78;;;13.95;51.20
18918;BME280;9591;52.742;13.650;2023-04-19T08:40:25;101936.25;;;14.54;50.38
18918;BME280;9591;52.742;13.650;2023-04-19T08:43:14;101924.91;;;14.75;46.52
18918;BME280;9591;52.742;13.650;2023-04-19T08:46:02;101928.66;;;14.70;46.17
18918;BME280;9591;52.742;13.650;2023-04-19T08:48:50;101914.97;;;14.81;46.36
18918;BME280;9591;52.742;13.650;2023-04-19T08:51:38;101924.19;;;16.04;46.63
18918;BME280;9591;52.742;13.650;2023-04-19T08:54:27;101921.03;;;16.41;44.00
18918;BME280;9591;52.742;13.650;2023-04-19T08:57:14;101910.28;;;16.43;43.21
18918;BME280;9591;52.742;13.650;2023-04-19T09:00:03;101916.88;;;16.09;44.03
18918;BME280;9591;52.742;13.650;2023-04-19T09:02:52;101915.25;;;15.54;44.47
18918;BME280;9591;52.742;13.650;2023-04-19T09:05:40;101913.81;;;14.61;45.93
18918;BME280;9591;52.742;13.650;2023-04-19T09:08:28;101924.06;;;14.46;46.59
18918;BME280;9591;52.742;13.650;2023-04-19T09:11:15;101925.63;;;14.53;46.83
18918;BME280;9591;52.742;13.650;2023-04-19T09:14:07;101905.03;;;14.86;43.96
18918;BME280;9591;52.742;13.650;2023-04-19T09:17:10;101914.59;;;14.93;48.71
18918;BME280;9591;52.742;13.650;2023-04-19T09:19:58;101905.75;;;15.71;44.27
18918;BME280;9591;52.742;13.650;2023-04-19T09:23:02;101902.25;;;15.17;43.64
18918;BME280;9591;52.742;13.650;2023-04-19T09:25:52;101908.88;;;15.05;44.20
18918;BME280;9591;52.742;13.650;2023-04-19T09:29:00;101896.13;;;14.59;47.78
18918;BME280;9591;52.742;13.650;2023-04-19T09:31:57;101895.75;;;14.71;46.02
18918;BME280;9591;52.742;13.650;2023-04-19T09:34:50;101881.41;;;14.73;48.43
18918;BME280;9591;52.742;13.650;2023-04-19T09:37:37;101886.19;;;14.64;43.77
18918;BME280;9591;52.742;13.650;2023-04-19T09:40:46;101880.69;;;14.70;46.54
18918;BME280;9591;52.742;13.650;2023-04-19T09:43:34;101871.13;;;14.89;46.69
18918;BME280;9591;52.742;13.650;2023-04-19T09:46:40;101877.84;;;14.47;43.72
18918;BME280;9591;52.742;13.650;2023-04-19T09:49:31;101883.84;;;14.53;45.70
18918;BME280;9591;52.742;13.650;2023-04-19T09:52:34;101870.00;;;14.70;45.57
18918;BME280;9591;52.742;13.650;2023-04-19T09:55:21;101879.72;;;14.72;43.73
18918;BME280;9591;52.742;13.650;2023-04-19T09:58:12;101874.59;;;14.65;46.19
18918;BME280;9591;52.742;13.650;2023-04-19T10:00:59;101883.38;;;14.68;47.56
18918;BME280;9591;52.742;13.650;2023-04-19T10:03:59;101889.97;;;14.57;45.02
18918;BME280;9591;52.742;13.650;2023-04-19T10:07:09;101884.19;;;14.98;46.61
18918;BME280;9591;52.742;13.650;2023-04-19T10:09:59;101890.75;;;14.60;45.95
18918;BME280;9591;52.742;13.650;2023-04-19T10:13:05;101886.56;;;14.52;44.50
18918;BME280;9591;52.742;13.650;2023-04-19T10:16:05;101871.91;;;14.06;45.09
18918;BME280;9591;52.742;13.650;2023-04-19T10:19:06;101861.66;;;14.53;45.34
18918;BME280;9591;52.742;13.650;2023-04-19T10:21:54;101868.66;;;15.37;45.78
18918;BME280;9591;52.742;13.650;2023-04-19T10:25:06;101848.72;;;15.72;44.02
18918;BME280;9591;52.742;13.650;2023-04-19T10:27:53;101862.44;;;15.11;45.61
18918;BME280;9591;52.742;13.650;2023-04-19T10:30:52;101859.06;;;15.32;45.01
18918;BME280;9591;52.742;13.650;2023-04-19T10:33:39;101837.84;;;15.01;43.47
18918;BME280;9591;52.742;13.650;2023-04-19T10:36:26;101854.44;;;15.62;44.36
18918;BME280;9591;52.742;13.650;2023-04-19T10:39:37;101844.56;;;15.39;43.02
18918;BME280;9591;52.742;13.650;2023-04-19T10:43:13;101850.31;;;15.53;42.86
18918;BME280;9591;52.742;13.650;2023-04-19T10:46:01;101844.69;;;15.86;46.16
18918;BME280;9591;52.742;13.650;2023-04-19T10:48:52;101842.13;;;15.59;44.29
18918;BME280;9591;52.742;13.650;2023-04-19T10:51:41;101835.59;;;15.66;43.01
18918;BME280;9591;52.742;13.650;2023-04-19T10:54:33;101840.75;;;16.43;43.22
18918;BME280;9591;52.742;13.650;2023-04-19T10:57:21;101838.09;;;16.19;42.16
18918;BME280;9591;52.742;13.650;2023-04-19T11:00:21;101833.78;;;15.92;42.74
18918;BME280;9591;52.742;13.650;2023-04-19T11:06:34;101780.03;;;15.01;44.19
18918;BME280;9591;52.742;13.650;2023-04-19T11:09:21;101827.84;;;15.34;45.63
18918;BME280;9591;52.742;13.650;2023-04-19T11:12:10;101827.84;;;15.07;44.27
18918;BME280;9591;52.742;13.650;2023-04-19T11:14:57;101830.06;;;14.68;44.65
18918;BME280;9591;52.742;13.650;2023-04-19T11:17:48;101826.91;;;14.82;45.71
18918;BME280;9591;52.742;13.650;2023-04-19T11:20:53;101812.47;;;14.89;44.01
18918;BME280;9591;52.742;13.650;2023-04-19T11:23:40;101818.03;;;14.55;45.11
18918;BME280;9591;52.742;13.650;2023-04-19T11:26:27;101805.47;;;14.85;47.30
18918;BME280;9591;52.742;13.650;2023-04-19T11:29:15;101805.09;;;14.71;46.37
18918;BME280;9591;52.742;13.650;2023-04-19T11:32:03;101805.78;;;14.76;48.60
18918;BME280;9591;52.742;13.650;2023-04-19T11:34:51;101795.53;;;14.90;46.23
18918;BME280;9591;52.742;13.650;2023-04-19T11:37:41;101801.03;;;14.86;45.67
18918;BME280;9591;52.742;13.650;2023-04-19T11:40:28;101799.97;;;14.35;45.06
18918;BME280;9591;52.742;13.650;2023-04-19T11:43:15;101796.66;;;14.57;44.98
18918;BME280;9591;52.742;13.650;2023-04-19T11:46:05;101784.59;;;14.45;46.51
18918;BME280;9591;52.742;13.650;2023-04-19T11:48:54;101787.38;;;14.40;46.19
18918;BME280;9591;52.742;13.650;2023-04-19T11:51:42;101772.28;;;14.69;46.35
18918;BME280;9591;52.742;13.650;2023-04-19T11:54:28;101769.91;;;14.60;45.49
18918;BME280;9591;52.742;13.650;2023-04-19T11:57:26;101766.75;;;15.00;47.95
18918;BME280;9591;52.742;13.650;2023-04-19T12:00:14;101749.44;;;14.87;47.29
18918;BME280;9591;52.742;13.650;2023-04-19T12:03:02;101761.50;;;15.48;46.36
18918;BME280;9591;52.742;13.650;2023-04-19T12:05:54;101720.69;;;14.95;49.05
18918;BME280;9591;52.742;13.650;2023-04-19T12:08:45;101760.78;;;15.18;45.42
18918;BME280;9591;52.742;13.650;2023-04-19T12:11:41;101744.28;;;15.32;46.17
18918;BME280;9591;52.742;13.650;2023-04-19T12:14:29;101752.72;;;15.20;45.98
18918;BME280;9591;52.742;13.650;2023-04-19T12:17:16;101746.78;;;15.12;48.27
18918;BME280;9591;52.742;13.650;2023-04-19T12:20:04;101730.28;;;15.25;48.98
18918;BME280;9591;52.742;13.650;2023-04-19T12:22:52;101723.41;;;15.43;45.85
18918;BME280;9591;52.742;13.650;2023-04-19T12:25:42;101723.53;;;15.40;44.59
18918;BME280;9591;52.742;13.650;2023-04-19T12:28:29;101721.41;;;15.50;44.42
18918;BME280;9591;52.742;13.650;2023-04-19T12:31:16;101715.81;;;15.56;43.29
18918;BME280;9591;52.742;13.650;2023-04-19T12:34:04;101708.56;;;15.83;41.78
18918;BME280;9591;52.742;13.650;2023-04-19T12:36:51;101710.41;;;16.04;41.05
18918;BME280;9591;52.742;13.650;2023-04-19T12:39:38;101723.50;;;15.88;41.21
18918;BME280;9591;52.742;13.650;2023-04-19T12:42:26;101711.88;;;15.89;39.33
18918;BME280;9591;52.742;13.650;2023-04-19T12:45:13;101700.91;;;15.97;42.47
18918;BME280;9591;52.742;13.650;2023-04-19T12:48:00;101700.97;;;16.17;41.41
18918;BME280;9591;52.742;13.650;2023-04-19T12:50:47;101701.88;;;15.94;40.78
18918;BME280;9591;52.742;13.650;2023-04-19T12:53:34;101698.81;;;14.85;40.63
18918;BME280;9591;52.742;13.650;2023-04-19T12:56:21;101711.88;;;14.40;41.46
18918;BME280;9591;52.742;13.650;2023-04-19T12:59:09;101699.91;;;15.04;44.03
18918;BME280;9591;52.742;13.650;2023-04-19T13:01:56;101692.00;;;15.26;43.96
18918;BME280;9591;52.742;13.650;2023-04-19T13:04:43;101689.75;;;15.39;41.06
18918;BME280;9591;52.742;13.650;2023-04-19T13:07:29;101685.66;;;15.54;41.75
18918;BME280;9591;52.742;13.650;2023-04-19T13:10:16;101676.72;;;16.00;42.46
18918;BME280;9591;52.742;13.650;2023-04-19T13:13:03;101685.47;;;15.10;41.40
18918;BME280;9591;52.742;13.650;2023-04-19T13:15:51;101694.75;;;15.48;41.95
18918;BME280;9591;52.742;13.650;2023-04-19T13:18:38;101686.38;;;15.34;43.58
18918;BME280;9591;52.742;13.650;2023-04-19T13:21:24;101684.59;;;15.09;43.67
18918;BME280;9591;52.742;13.650;2023-04-19T13:24:12;101678.44;;;15.32;43.73
18918;BME280;9591;52.742;13.650;2023-04-19T13:26:59;101672.88;;;15.14;42.43
18918;BME280;9591;52.742;13.650;2023-04-19T13:29:46;101666.44;;;14.71;43.67
18918;BME280;9591;52.742;13.650;2023-04-19T13:32:35;101673.44;;;14.73;44.04
18918;BME280;9591;52.742;13.650;2023-04-19T13:35:21;101668.59;;;14.60;46.06
18918;BME280;9591;52.742;13.650;2023-04-19T13:38:08;101661.13;;;14.45;44.78
18918;BME280;9591;52.742;13.650;2023-04-19T13:40:56;101663.63;;;13.93;45.33
18918;BME280;9591;52.742;13.650;2023-04-19T13:43:44;101655.28;;;14.32;47.96
18918;BME280;9591;52.742;13.650;2023-04-19T13:46:30;101650.06;;;14.29;48.34
18918;BME280;9591;52.742;13.650;2023-04-19T13:49:19;101638.06;;;13.88;46.33
18918;BME280;9591;52.742;13.650;2023-04-19T13:52:06;101649.69;;;14.39;47.81
18918;BME280;9591;52.742;13.650;2023-04-19T13:54:53;101646.59;;;14.53;46.38
18918;BME280;9591;52.742;13.650;2023-04-19T13:57:40;101583.50;;;14.27;47.12
18918;BME280;9591;52.742;13.650;2023-04-19T14:00:27;101639.91;;;14.41;46.25
18918;BME280;9591;52.742;13.650;2023-04-19T14:03:13;101646.19;;;14.11;47.16
18918;BME280;9591;52.742;13.650;2023-04-19T14:06:01;101638.78;;;14.21;48.96
18918;BME280;9591;52.742;13.650;2023-04-19T14:08:48;101631.47;;;13.99;48.77
18918;BME280;9591;52.742;13.650;2023-04-19T14:11:35;101626.09;;;13.74;49.05
18918;BME280;9591;52.742;13.650;2023-04-19T14:14:22;101629.25;;;14.14;49.02
18918;BME280;9591;52.742;13.650;2023-04-19T14:17:09;101628.63;;;13.79;48.75
18918;BME280;9591;52.742;13.650;2023-04-19T14:19:57;101628.78;;;13.45;49.32
18918;BME280;9591;52.742;13.650;2023-04-19T14:22:45;101627.06;;;13.42;50.14
18918;BME280;9591;52.742;13.650;2023-04-19T14:25:32;101637.50;;;13.19;51.75
18918;BME280;9591;52.742;13.650;2023-04-19T14:28:20;101635.91;;;12.81;53.48
18918;BME280;9591;52.742;13.650;2023-04-19T14:31:07;101636.44;;;12.61;57.07
18918;BME280;9591;52.742;13.650;2023-04-19T14:33:54;101641.34;;;12.42;59.13
18918;BME280;9591;52.742;13.650;2023-04-19T14:36:41;101641.50;;;12.36;61.71
18918;BME280;9591;52.742;13.650;2023-04-19T14:39:29;101645.78;;;12.08;61.84
18918;BME280;9591;52.742;13.650;2023-04-19T14:42:16;101650.34;;;11.61;66.76
18918;BME280;9591;52.742;13.650;2023-04-19T14:45:07;101661.13;;;11.12;69.57
18918;BME280;9591;52.742;13.650;2023-04-19T14:47:53;101677.69;;;10.77;75.43
18918;BME280;9591;52.742;13.650;2023-04-19T14:50:40;101677.66;;;10.29;86.23